Time;durP1;ratioP1;P1;durP2;ratioP2;P2;SDS_P1;SDS_P2;PMS_P1;PMS_P2;Temp;Humidity;BMP_temperature;BMP_pressure;BME280_temperature;BME280_humidity;BME280_pressure;Samples;Min_cycle;Max_cycle;Signal;HPM_P1;HPM_P2
2024/02/23 00:01:05;;;;;;;;;3.25;2.50;;;;;-143.90;86.00;73931.97;4968316;28;103469;-75
2024/02/23 00:03:35;;;;;;;;;1.00;1.00;;;;;-143.90;86.24;73938.19;4964331;28;101760;-75
2024/02/23 00:06:02;;;;;;;;;2.75;2.75;;;;;-143.90;87.21;73927.84;4966686;28;101614;-74
2024/02/23 00:08:29;;;;;;;;;2.00;2.00;;;;;-143.90;86.97;73936.09;4977551;28;106152;-75
2024/02/23 00:10:56;;;;;;;;;1.00;1.00;;;;;-143.90;86.38;73936.09;4963108;28;103804;-74
2024/02/23 00:13:23;;;;;;;;;3.00;3.00;;;;;-143.90;87.75;73936.09;4974230;28;102160;-74
2024/02/23 00:15:49;;;;;;;;;2.75;2.25;;;;;-143.90;87.10;73936.09;4973379;28;101593;-75
2024/02/23 00:18:16;;;;;;;;;5.75;3.25;;;;;-143.90;88.34;73929.91;4968588;28;101968;-75
2024/02/23 00:20:44;;;;;;;;;5.50;3.25;;;;;-143.90;87.56;73934.03;4972411;28;103497;-74
2024/02/23 00:23:10;;;;;;;;;6.50;4.00;;;;;-143.90;86.23;73927.84;4958076;28;101738;-75
2024/02/23 00:25:37;;;;;;;;;3.50;3.50;;;;;-143.90;86.64;73929.91;4964064;28;101908;-75
2024/02/23 00:28:05;;;;;;;;;5.00;4.00;;;;;-143.90;86.81;73925.78;4971341;28;101978;-73
2024/02/23 00:30:31;;;;;;;;;4.75;4.00;;;;;-143.90;85.77;73923.72;4978734;28;107938;-76
2024/02/23 00:32:58;;;;;;;;;3.00;3.00;;;;;-143.90;86.67;73927.84;4967313;28;105095;-76
2024/02/23 00:35:25;;;;;;;;;3.00;2.75;;;;;-143.90;86.81;73915.44;4961634;28;101509;-76
2024/02/23 00:37:52;;;;;;;;;2.25;2.25;;;;;-143.90;86.85;73919.56;4970298;28;102323;-76
2024/02/23 00:40:18;;;;;;;;;5.00;3.00;;;;;-143.90;86.21;73917.50;4972727;28;106225;-75
2024/02/23 00:42:45;;;;;;;;;2.00;2.00;;;;;-143.90;85.48;73917.50;4976091;28;101474;-74
2024/02/23 00:45:11;;;;;;;;;3.75;3.00;;;;;-143.90;86.62;73911.31;4963656;28;101529;-75
2024/02/23 00:47:38;;;;;;;;;2.75;2.00;;;;;-143.90;86.90;73907.16;4959789;28;101991;-75
2024/02/23 00:50:06;;;;;;;;;1.00;1.00;;;;;-143.90;86.90;73907.16;4967113;28;103540;-74
2024/02/23 00:52:32;;;;;;;;;2.00;2.00;;;;;-143.90;85.96;73913.38;4972620;28;101403;-75
2024/02/23 00:55:01;;;;;;;;;1.75;1.75;;;;;-143.90;86.88;73919.56;4960546;28;101938;-75
2024/02/23 00:57:29;;;;;;;;;2.25;2.25;;;;;-143.90;86.17;73915.44;4956609;28;101785;-75
2024/02/23 00:59:57;;;;;;;;;2.00;2.00;;;;;-143.90;85.72;73915.44;4976066;28;103845;-76
2024/02/23 01:02:24;;;;;;;;;3.00;2.00;;;;;-143.90;84.61;73911.31;4965731;28;106658;-76
2024/02/23 01:04:56;;;;;;;;;2.00;2.00;;;;;-143.90;85.16;73909.25;4971601;28;101771;-75
2024/02/23 01:07:23;;;;;;;;;2.50;2.50;;;;;-143.90;84.64;73911.31;4972557;28;101785;-76
2024/02/23 01:09:50;;;;;;;;;2.25;2.00;;;;;-143.90;85.17;73909.25;4968150;28;103587;-75
2024/02/23 01:12:16;;;;;;;;;3.00;2.50;;;;;-143.90;84.91;73911.31;4975745;28;102006;-75
2024/02/23 01:14:43;;;;;;;;;1.00;1.00;;;;;-143.90;84.95;73915.44;4975804;28;101570;-76
2024/02/23 01:17:10;;;;;;;;;3.00;2.00;;;;;-143.90;85.22;73915.44;4969877;28;104782;-75
2024/02/23 01:19:37;;;;;;;;;3.00;3.00;;;;;-143.90;85.87;73917.50;4970460;28;103524;-75
2024/02/23 01:22:04;;;;;;;;;4.75;3.00;;;;;-143.90;85.91;73921.63;4963288;28;101801;-75
2024/02/23 01:24:31;;;;;;;;;3.50;3.00;;;;;-143.90;86.38;73919.56;4971858;28;101968;-76
2024/02/23 01:26:58;;;;;;;;;3.75;2.00;;;;;-143.90;86.89;73923.72;4963479;28;102307;-76
2024/02/23 01:29:26;;;;;;;;;2.00;2.00;;;;;-143.90;86.00;73927.84;4976532;28;103393;-74
2024/02/23 01:31:54;;;;;;;;;3.00;2.50;;;;;-143.90;85.88;73927.84;4979158;28;101689;-77
2024/02/23 01:34:21;;;;;;;;;3.00;2.50;;;;;-143.90;86.09;73931.97;4969510;28;101818;-74
2024/02/23 01:36:48;;;;;;;;;0.00;0.00;;;;;-143.90;87.14;73931.97;4959853;28;101984;-74
2024/02/23 01:39:17;;;;;;;;;2.00;2.00;;;;;-143.90;87.17;73927.84;4963547;28;103568;-74
2024/02/23 01:41:44;;;;;;;;;0.25;0.00;;;;;-143.90;87.26;73931.97;4958590;28;101607;-74
2024/02/23 01:44:11;;;;;;;;;3.50;3.00;;;;;-143.90;87.51;73938.19;4953975;28;101500;-74
2024/02/23 01:46:38;;;;;;;;;2.50;1.25;;;;;-143.90;88.11;73927.84;4978024;28;101688;-74
2024/02/23 01:49:07;;;;;;;;;3.00;2.50;;;;;-143.90;87.70;73936.09;4957850;28;103610;-74
2024/02/23 01:51:35;;;;;;;;;2.00;2.00;;;;;-143.90;87.89;73940.25;4971945;28;101864;-74
2024/02/23 01:54:03;;;;;;;;;4.50;3.00;;;;;-143.90;87.11;73944.38;4973991;28;101749;-74
2024/02/23 01:56:32;;;;;;;;;5.50;4.75;;;;;-143.90;87.54;73940.25;4971087;28;103871;-74
2024/02/23 01:59:00;;;;;;;;;7.25;3.50;;;;;-143.90;86.91;73946.44;4960311;28;111494;-75
2024/02/23 02:01:27;;;;;;;;;3.00;2.50;;;;;-143.90;85.89;73938.19;4977876;28;102133;-74
2024/02/23 02:03:56;;;;;;;;;3.00;2.75;;;;;-143.90;86.81;73936.09;4973601;28;101817;-74
2024/02/23 02:06:24;;;;;;;;;2.75;2.00;;;;;-143.90;87.42;73938.19;4969212;28;101882;-74
2024/02/23 02:08:51;;;;;;;;;3.00;2.75;;;;;-143.90;88.48;73940.25;4951964;28;103406;-75
2024/02/23 02:11:17;;;;;;;;;3.00;3.00;;;;;-143.90;87.54;73936.09;4964162;28;101574;-74
2024/02/23 02:13:44;;;;;;;;;2.50;2.00;;;;;-143.90;88.55;73934.03;4972333;28;101566;-74
2024/02/23 02:16:11;;;;;;;;;2.25;2.25;;;;;-143.90;88.12;73931.97;4966867;28;101932;-73
2024/02/23 02:18:38;;;;;;;;;3.00;2.75;;;;;-143.90;88.62;73927.84;4971806;28;103398;-74
2024/02/23 02:21:05;;;;;;;;;2.00;2.00;;;;;-143.90;88.47;73931.97;4968320;28;101477;-73
2024/02/23 02:23:32;;;;;;;;;3.00;2.25;;;;;-143.90;89.19;73927.84;4967030;28;101969;-74
2024/02/23 02:25:59;;;;;;;;;1.25;1.00;;;;;-143.90;90.60;73927.84;4967877;28;101666;-74
2024/02/23 02:28:26;;;;;;;;;1.00;1.00;;;;;-143.90;90.62;73923.72;4971359;28;103515;-74
2024/02/23 02:30:53;;;;;;;;;2.00;2.00;;;;;-143.90;90.39;73931.97;4973810;28;102135;-75
2024/02/23 02:33:20;;;;;;;;;1.00;1.00;;;;;-143.90;90.59;73934.03;4968285;28;101844;-74
2024/02/23 02:35:47;;;;;;;;;1.25;1.25;;;;;-143.90;89.21;73936.09;4978870;28;102176;-73
2024/02/23 02:38:14;;;;;;;;;1.50;1.50;;;;;-143.90;89.33;73931.97;4967195;28;104750;-73
2024/02/23 02:40:41;;;;;;;;;3.00;2.75;;;;;-143.90;88.90;73938.19;4958140;28;101706;-74
2024/02/23 02:43:08;;;;;;;;;1.25;1.25;;;;;-143.90;88.45;73944.38;4972186;28;102324;-74
2024/02/23 02:45:34;;;;;;;;;2.00;2.00;;;;;-143.90;88.18;73946.44;4977130;28;101530;-74
2024/02/23 02:48:04;;;;;;;;;1.00;1.00;;;;;-143.90;88.57;73944.38;4968361;28;111608;-74
2024/02/23 02:50:31;;;;;;;;;1.50;1.00;;;;;-143.90;90.29;73940.25;4970838;28;101970;-74
2024/02/23 02:52:58;;;;;;;;;0.50;0.50;;;;;-143.90;92.71;73944.38;4963183;28;102595;-73
2024/02/23 02:55:25;;;;;;;;;1.50;1.50;;;;;-143.90;96.83;73946.44;4971953;28;101641;-74
2024/02/23 02:57:51;;;;;;;;;1.00;0.00;;;;;-143.90;98.37;73952.63;4974596;28;103373;-74
2024/02/23 03:00:18;;;;;;;;;1.00;1.00;;;;;-143.90;97.27;73960.91;4967140;28;101688;-74
2024/02/23 03:02:45;;;;;;;;;0.75;0.75;;;;;-143.90;100.00;73965.03;4961775;28;104914;-74
2024/02/23 03:05:11;;;;;;;;;0.00;0.00;;;;;-143.90;100.00;73973.31;4960910;28;101861;-74
2024/02/23 03:07:38;;;;;;;;;2.50;1.00;;;;;-143.90;100.00;73975.38;4978933;28;103491;-74
2024/02/23 03:10:05;;;;;;;;;0.50;0.00;;;;;-143.90;100.00;73981.56;4983628;28;101623;-74
2024/02/23 03:12:32;;;;;;;;;1.00;0.00;;;;;-143.90;100.00;73985.72;4967970;28;101846;-74
2024/02/23 03:14:59;;;;;;;;;0.00;0.00;;;;;-143.90;100.00;73985.72;4963211;28;101940;-74
2024/02/23 03:17:26;;;;;;;;;1.00;1.00;;;;;-143.90;100.00;73998.13;4967810;28;103450;-74
2024/02/23 03:19:52;;;;;;;;;0.25;0.00;;;;;-143.90;100.00;74008.44;4969948;28;101515;-74
2024/02/23 03:22:20;;;;;;;;;1.00;1.00;;;;;-143.90;100.00;74016.72;4973231;28;101755;-74
2024/02/23 03:24:46;;;;;;;;;0.50;0.00;;;;;-143.90;100.00;74022.91;4973665;28;101877;-74
2024/02/23 03:27:13;;;;;;;;;0.75;0.75;;;;;-143.90;100.00;74031.19;4955402;28;103699;-74
2024/02/23 03:29:40;;;;;;;;;1.00;1.00;;;;;-143.90;100.00;74037.38;4971121;28;101748;-74
2024/02/23 03:32:07;;;;;;;;;2.00;2.00;;;;;-143.90;100.00;74043.59;4974591;28;101573;-74
2024/02/23 03:34:35;;;;;;;;;2.25;1.75;;;;;-143.90;100.00;74049.78;4981413;28;101495;-73
2024/02/23 03:37:02;;;;;;;;;3.75;2.50;;;;;-143.90;100.00;74051.84;4971378;28;110428;-75
2024/02/23 03:39:29;;;;;;;;;1.75;1.75;;;;;-143.90;100.00;74058.06;4972430;28;101845;-76
2024/02/23 03:41:56;;;;;;;;;1.25;1.25;;;;;-143.90;100.00;74062.19;4976274;28;101741;-75
2024/02/23 03:44:23;;;;;;;;;2.50;2.00;;;;;-143.90;100.00;74066.31;4974587;28;101576;-75
2024/02/23 03:46:50;;;;;;;;;1.00;1.00;;;;;-143.90;100.00;74078.72;4971189;28;103338;-73
2024/02/23 03:49:17;;;;;;;;;2.00;2.00;;;;;-143.90;100.00;74082.84;4973669;28;101808;-73
2024/02/23 03:51:44;;;;;;;;;2.00;1.75;;;;;-143.90;100.00;74091.13;4968911;28;101979;-73
2024/02/23 03:54:10;;;;;;;;;1.00;1.00;;;;;-143.90;100.00;74091.13;4965113;28;106915;-73
2024/02/23 03:56:40;;;;;;;;;0.25;0.25;;;;;-143.90;100.00;74093.19;4971235;28;103797;-75
2024/02/23 03:59:09;;;;;;;;;1.00;1.00;;;;;-143.90;100.00;74093.19;4971480;28;101961;-73
2024/02/23 04:01:37;;;;;;;;;2.50;1.75;;;;;-143.90;100.00;74097.31;4981740;28;101847;-73
2024/02/23 04:04:04;;;;;;;;;0.00;0.00;;;;;-143.90;100.00;74101.44;4978853;28;102194;-74
2024/02/23 04:06:33;;;;;;;;;1.00;1.00;;;;;-143.90;100.00;74107.66;4971065;28;108240;-74
2024/02/23 04:08:59;;;;;;;;;1.00;1.00;;;;;-143.90;100.00;74107.66;4961909;28;101695;-74
2024/02/23 04:11:26;;;;;;;;;2.00;2.00;;;;;-143.90;100.00;74118.00;4973851;28;101753;-74
2024/02/23 04:13:53;;;;;;;;;2.75;2.75;;;;;-143.90;100.00;74118.00;4974778;28;102078;-74
2024/02/23 04:16:23;;;;;;;;;1.25;1.25;;;;;-143.90;100.00;74122.13;4972790;28;103587;-74
2024/02/23 04:18:51;;;;;;;;;2.00;2.00;;;;;-143.90;100.00;74122.13;4966101;28;102092;-74
2024/02/23 04:21:17;;;;;;;;;1.00;1.00;;;;;-143.90;100.00;74126.25;4966260;28;101765;-75
2024/02/23 04:23:44;;;;;;;;;1.00;1.00;;;;;-143.90;100.00;74124.19;4960117;28;102029;-74
2024/02/23 04:26:11;;;;;;;;;3.00;2.00;;;;;-143.90;100.00;74124.19;4970991;28;105799;-74
2024/02/23 04:28:39;;;;;;;;;2.00;2.00;;;;;-143.90;100.00;74134.53;4967770;28;102090;-75
2024/02/23 04:31:08;;;;;;;;;2.50;2.00;;;;;-143.90;100.00;74130.38;4968600;28;101873;-74
2024/02/23 04:33:38;;;;;;;;;2.00;2.00;;;;;-143.90;100.00;74136.59;4984080;28;101943;-74
2024/02/23 04:36:05;;;;;;;;;2.50;2.00;;;;;-143.90;100.00;74134.53;4965013;28;107871;-74
2024/02/23 04:38:32;;;;;;;;;1.00;1.00;;;;;-143.90;100.00;74130.38;4958079;28;101822;-74
2024/02/23 04:41:03;;;;;;;;;1.75;1.00;;;;;-143.90;100.00;74134.53;4952140;28;102010;-74
2024/02/23 04:43:31;;;;;;;;;2.00;2.00;;;;;-143.90;100.00;74140.72;4964251;28;101731;-74
2024/02/23 04:45:58;;;;;;;;;2.00;1.50;;;;;-143.90;100.00;74155.19;4980318;28;103329;-74
2024/02/23 04:48:25;;;;;;;;;2.50;2.00;;;;;-143.90;100.00;74146.91;4976143;28;101568;-74
2024/02/23 04:50:51;;;;;;;;;2.50;1.75;;;;;-143.90;100.00;74146.91;4963889;28;101617;-73
2024/02/23 04:53:19;;;;;;;;;1.50;1.00;;;;;-143.90;100.00;74151.06;4974661;28;101830;-74
2024/02/23 04:55:46;;;;;;;;;3.75;2.00;;;;;-143.90;100.00;74155.19;4978401;28;103587;-74
2024/02/23 04:58:13;;;;;;;;;6.50;6.00;;;;;-143.90;100.00;74169.66;4964399;28;101762;-73
2024/02/23 05:00:39;;;;;;;;;6.75;6.00;;;;;-143.90;100.00;74165.53;4960947;28;102502;-73
2024/02/23 05:03:06;;;;;;;;;2.25;2.25;;;;;-143.90;100.00;74177.94;4969516;28;102131;-74
2024/02/23 05:05:37;;;;;;;;;3.00;3.00;;;;;-143.90;100.00;74180.00;4977060;28;108285;-74
2024/02/23 05:08:04;;;;;;;;;7.00;5.50;;;;;-143.90;100.00;74192.41;4975551;28;101433;-74
2024/02/23 05:10:31;;;;;;;;;7.50;6.00;;;;;-143.90;100.00;74190.31;4975094;28;103537;-74
2024/02/23 05:12:58;;;;;;;;;6.00;6.00;;;;;-143.90;100.00;74186.19;4964503;28;102121;-73
2024/02/23 05:15:24;;;;;;;;;3.50;3.50;;;;;-143.90;100.00;74190.31;4970830;28;103389;-74
2024/02/23 05:17:51;;;;;;;;;6.00;4.50;;;;;-143.90;100.00;74188.25;4967454;28;101779;-74
2024/02/23 05:20:18;;;;;;;;;3.00;3.00;;;;;-143.90;100.00;74184.13;4969131;28;101430;-74
2024/02/23 05:22:45;;;;;;;;;7.00;4.00;;;;;-143.90;100.00;74192.41;4965624;28;101719;-74
2024/02/23 05:25:11;;;;;;;;;7.75;4.00;;;;;-143.90;100.00;74192.41;4974070;28;103442;-74
2024/02/23 05:27:38;;;;;;;;;2.75;2.00;;;;;-143.90;100.00;74198.59;4974390;28;101568;-74
2024/02/23 05:30:06;;;;;;;;;9.50;6.50;;;;;-143.90;100.00;74204.78;4976415;28;104674;-74
2024/02/23 05:32:33;;;;;;;;;6.25;4.50;;;;;-143.90;100.00;74204.78;4976391;28;101692;-74
2024/02/23 05:35:00;;;;;;;;;7.00;6.00;;;;;-143.90;100.00;74196.53;4957711;28;103411;-74
2024/02/23 05:37:27;;;;;;;;;5.25;4.00;;;;;-143.90;100.00;74202.72;4965501;28;101951;-74
2024/02/23 05:39:54;;;;;;;;;5.00;4.25;;;;;-143.90;100.00;74211.00;4963249;28;101811;-74
2024/02/23 05:42:20;;;;;;;;;5.00;5.00;;;;;-143.90;100.00;74217.19;4977861;28;102511;-74
2024/02/23 05:44:48;;;;;;;;;3.25;3.00;;;;;-143.90;100.00;74217.19;4964875;28;103612;-74
2024/02/23 05:47:15;;;;;;;;;6.50;4.00;;;;;-143.90;100.00;74227.53;4955487;28;101852;-75
2024/02/23 05:49:42;;;;;;;;;5.00;3.00;;;;;-143.90;100.00;74227.53;4964835;28;101961;-74
2024/02/23 05:52:09;;;;;;;;;8.00;6.75;;;;;-143.90;100.00;74233.72;4963786;28;102276;-75
2024/02/23 05:54:36;;;;;;;;;10.50;9.25;;;;;-143.90;100.00;74237.88;4975899;28;103973;-72
2024/02/23 05:57:03;;;;;;;;;11.50;8.75;;;;;-143.90;100.00;74246.13;4966579;28;101778;-72
2024/02/23 05:59:30;;;;;;;;;15.50;9.75;;;;;-143.90;100.00;74250.25;4972553;28;101904;-74
2024/02/23 06:01:56;;;;;;;;;18.75;14.00;;;;;-143.90;100.00;74242.00;4973431;28;103387;-74
2024/02/23 06:04:24;;;;;;;;;17.50;14.25;;;;;-143.90;100.00;74242.00;4969447;28;103328;-74
2024/02/23 06:06:51;;;;;;;;;29.00;24.25;;;;;-143.90;100.00;74248.19;4957287;28;101645;-73
2024/02/23 06:09:18;;;;;;;;;22.75;20.00;;;;;-143.90;100.00;74250.25;4967896;28;101437;-73
2024/02/23 06:11:46;;;;;;;;;17.75;14.00;;;;;-143.90;100.00;74246.13;4961435;28;101931;-74
2024/02/23 06:14:13;;;;;;;;;14.75;13.50;;;;;-143.90;100.00;74250.25;4979164;28;103451;-74
2024/02/23 06:16:40;;;;;;;;;8.75;7.25;;;;;-143.90;100.00;74252.34;4974518;28;104708;-74
2024/02/23 06:19:07;;;;;;;;;8.50;8.00;;;;;-143.90;100.00;74258.53;4968767;28;101893;-73
2024/02/23 06:21:34;;;;;;;;;7.00;7.00;;;;;-143.90;100.00;74256.47;4974916;28;102447;-74
2024/02/23 06:24:01;;;;;;;;;5.50;4.00;;;;;-143.90;100.00;74254.41;4974951;28;103530;-74
2024/02/23 06:26:28;;;;;;;;;1.75;1.75;;;;;-143.90;100.00;74258.53;4976806;28;101563;-74
2024/02/23 06:28:55;;;;;;;;;3.50;3.50;;;;;-143.90;100.00;74254.41;4970922;28;101872;-74
2024/02/23 06:31:21;;;;;;;;;3.00;3.00;;;;;-143.90;100.00;74260.59;4971426;28;102552;-74
2024/02/23 06:33:49;;;;;;;;;2.25;2.25;;;;;-143.90;100.00;74266.81;4970449;28;103722;-74
2024/02/23 06:36:16;;;;;;;;;2.75;2.75;;;;;-143.90;100.00;74260.59;4966676;28;101698;-74
2024/02/23 06:38:43;;;;;;;;;1.00;1.00;;;;;-143.90;100.00;74264.72;4969248;28;101878;-74
2024/02/23 06:41:11;;;;;;;;;1.25;1.00;;;;;-143.90;100.00;74264.72;4972598;28;102128;-75
2024/02/23 06:43:37;;;;;;;;;1.00;1.00;;;;;-143.90;100.00;74266.81;4957733;28;103512;-74
2024/02/23 06:46:07;;;;;;;;;2.00;0.25;;;;;-143.90;100.00;74273.00;4969570;28;101991;-74
2024/02/23 06:48:34;;;;;;;;;0.00;0.00;;;;;-143.90;100.00;74273.00;4977710;28;101590;-74
2024/02/23 06:51:02;;;;;;;;;0.00;0.00;;;;;-143.90;100.00;74273.00;4956031;28;102731;-74
2024/02/23 06:53:28;;;;;;;;;2.00;1.00;;;;;-143.90;100.00;74270.94;4973588;28;103498;-74
2024/02/23 06:55:55;;;;;;;;;3.00;3.00;;;;;-143.90;100.00;74285.41;4969583;28;102656;-74
2024/02/23 06:58:22;;;;;;;;;2.75;2.00;;;;;-143.90;100.00;74287.47;4962416;28;102031;-74
2024/02/23 07:00:49;;;;;;;;;4.00;4.00;;;;;-143.90;100.00;74297.81;4953425;28;101923;-74
2024/02/23 07:03:16;;;;;;;;;4.00;4.00;;;;;-143.90;100.00;74297.81;4977103;28;104809;-74
2024/02/23 07:05:45;;;;;;;;;5.50;3.75;;;;;-143.90;100.00;74306.06;4976343;28;101843;-74
2024/02/23 07:08:12;;;;;;;;;8.50;7.25;;;;;-143.90;100.00;74324.69;4970676;28;103537;-74
2024/02/23 07:10:39;;;;;;;;;4.50;4.00;;;;;-143.90;100.00;74330.88;4979151;28;102352;-74
2024/02/23 07:13:07;;;;;;;;;5.75;5.50;;;;;-143.90;100.00;74339.16;4952807;28;103341;-75
2024/02/23 07:15:35;;;;;;;;;7.00;6.25;;;;;-143.90;100.00;74349.47;4968647;28;101564;-75
2024/02/23 07:18:03;;;;;;;;;8.25;7.00;;;;;-143.90;100.00;74347.41;4971103;28;101679;-75
2024/02/23 07:20:30;;;;;;;;;8.00;7.50;;;;;-143.90;100.00;74361.88;4979509;28;103342;-75
2024/02/23 07:22:57;;;;;;;;;6.00;6.00;;;;;-143.90;100.00;74366.00;4958821;28;103968;-75
2024/02/23 07:25:24;;;;;;;;;9.25;9.00;;;;;-143.90;100.00;74368.09;4978764;28;103910;-75
2024/02/23 07:27:50;;;;;;;;;10.50;7.50;;;;;-143.90;100.00;74357.75;4976187;28;101728;-75
2024/02/23 07:30:17;;;;;;;;;9.25;7.25;;;;;-143.90;100.00;74349.47;4973624;28;105471;-74
2024/02/23 07:32:44;;;;;;;;;5.50;5.50;;;;;-143.90;100.00;74335.00;4975950;28;103758;-75
2024/02/23 07:35:15;;;;;;;;;7.25;6.25;;;;;-143.90;100.00;74328.81;4972041;28;102339;-74
2024/02/23 07:37:42;;;;;;;;;9.50;8.50;;;;;-143.90;100.00;74322.59;4980154;28;101906;-75
2024/02/23 07:40:09;;;;;;;;;8.75;7.50;;;;;-143.90;100.00;74320.53;4976310;28;101724;-74
2024/02/23 07:42:36;;;;;;;;;6.25;4.50;;;;;-143.90;100.00;74312.28;4983454;28;104731;-75
2024/02/23 07:45:04;;;;;;;;;7.50;5.50;;;;;-143.90;100.00;74308.13;4966117;28;101629;-74
2024/02/23 07:47:31;;;;;;;;;7.00;6.00;;;;;-143.90;100.00;74299.88;4974864;28;101560;-74
2024/02/23 07:49:58;;;;;;;;;2.50;2.00;;;;;-143.90;100.00;74287.47;4980327;28;103102;-74
2024/02/23 07:52:25;;;;;;;;;4.00;3.50;;;;;-143.90;100.00;74285.41;4964407;28;103378;-74
2024/02/23 07:54:53;;;;;;;;;4.00;4.00;;;;;-143.90;100.00;74287.47;4969709;28;101791;-73
2024/02/23 07:57:20;;;;;;;;;4.50;3.25;;;;;-143.90;100.00;74304.00;4971546;28;101849;-74
2024/02/23 07:59:47;;;;;;;;;6.00;4.00;;;;;-143.90;100.00;74312.28;4969177;28;101706;-74
2024/02/23 08:02:14;;;;;;;;;3.00;3.00;;;;;-143.90;100.00;74306.06;4975239;28;103407;-74
2024/02/23 08:04:42;;;;;;;;;6.50;4.00;;;;;-143.90;100.00;74291.59;4974557;28;102370;-73
2024/02/23 08:07:09;;;;;;;;;4.50;4.50;;;;;-143.90;100.00;74289.53;4967558;28;101569;-74
2024/02/23 08:09:36;;;;;;;;;3.50;3.50;;;;;-143.90;100.00;74281.28;4974982;28;101905;-74
2024/02/23 08:12:03;;;;;;;;;6.00;5.25;;;;;-143.90;100.00;74277.13;4971334;28;106092;-73
2024/02/23 08:14:29;;;;;;;;;5.00;3.00;;;;;-143.90;100.00;74279.22;4958649;28;103291;-73
2024/02/23 08:16:56;;;;;;;;;4.50;4.00;;;;;-143.90;100.00;74281.28;4971787;28;102664;-74
2024/02/23 08:19:23;;;;;;;;;3.75;3.00;;;;;-143.90;100.00;74275.06;4975857;28;101749;-73
2024/02/23 08:21:49;;;;;;;;;3.50;3.00;;;;;-143.90;100.00;74279.22;4974173;28;103333;-73
2024/02/23 08:24:17;;;;;;;;;5.00;4.00;;;;;-143.90;100.00;74279.22;4964298;28;103082;-73
2024/02/23 08:26:44;;;;;;;;;2.00;2.00;;;;;-143.90;100.00;74266.81;4970793;28;101620;-73
2024/02/23 08:29:11;;;;;;;;;0.00;0.00;;;;;-143.90;100.00;74270.94;4964490;28;105541;-73
2024/02/23 08:31:38;;;;;;;;;3.00;2.00;;;;;-143.90;100.00;74264.72;4976260;28;103445;-74
2024/02/23 08:34:08;;;;;;;;;2.50;2.00;;;;;-143.90;100.00;74264.72;4964156;28;104896;-74
2024/02/23 08:36:35;;;;;;;;;3.00;3.00;;;;;-143.90;100.00;74275.06;4966835;28;101516;-73
2024/02/23 08:39:02;;;;;;;;;3.75;3.00;;;;;-143.90;100.00;74270.94;4968047;28;101565;-73
2024/02/23 08:41:29;;;;;;;;;3.25;2.50;;;;;-143.90;100.00;74275.06;4978733;28;103175;-74
2024/02/23 08:43:56;;;;;;;;;2.50;2.00;;;;;-143.90;100.00;74273.00;4972825;28;101851;-74
2024/02/23 08:46:23;;;;;;;;;3.00;3.00;;;;;-143.90;100.00;74279.22;4963609;28;101762;-74
2024/02/23 08:48:50;;;;;;;;;2.25;2.25;;;;;-143.90;100.00;74277.13;4972002;28;104106;-74
2024/02/23 08:51:17;;;;;;;;;4.00;3.50;;;;;-143.90;100.00;74283.34;4968308;28;103343;-73
2024/02/23 08:53:43;;;;;;;;;4.50;4.00;;;;;-143.90;100.00;74285.41;4954945;28;101547;-74
2024/02/23 08:56:12;;;;;;;;;5.75;3.00;;;;;-143.90;100.00;74277.13;4962639;28;101832;-73
2024/02/23 08:58:38;;;;;;;;;7.25;6.00;;;;;-143.90;100.00;74283.34;4980412;28;101879;-75
2024/02/23 09:01:05;;;;;;;;;4.50;4.50;;;;;-143.90;100.00;74289.53;4964056;28;108086;-74
2024/02/23 09:03:32;;;;;;;;;6.00;5.50;;;;;-143.90;100.00;74291.59;4973797;28;101733;-74
2024/02/23 09:05:59;;;;;;;;;8.25;6.00;;;;;-143.90;100.00;74291.59;4973361;28;101985;-74
2024/02/23 09:08:26;;;;;;;;;12.00;8.00;;;;;-143.90;100.00;74287.47;4978090;28;101801;-73
2024/02/23 09:10:52;;;;;;;;;9.00;8.75;;;;;-143.90;100.00;74275.06;4969761;28;103385;-73
2024/02/23 09:13:19;;;;;;;;;9.00;8.75;;;;;-143.90;100.00;74281.28;4970898;28;102429;-73
2024/02/23 09:15:46;;;;;;;;;10.50;7.25;;;;;-143.90;100.00;74273.00;4970849;28;101955;-74
2024/02/23 09:18:13;;;;;;;;;8.75;7.75;;;;;-143.90;100.00;74262.66;4972919;28;101917;-74
2024/02/23 09:20:39;;;;;;;;;5.25;4.00;;;;;-143.90;100.00;74266.81;4970853;28;103346;-73
2024/02/23 09:23:06;;;;;;;;;11.25;6.50;;;;;-143.90;100.00;74262.66;4959557;28;101646;-74
2024/02/23 09:25:33;;;;;;;;;5.50;4.00;;;;;-143.90;100.00;74258.53;4958600;28;103128;-74
2024/02/23 09:28:00;;;;;;;;;7.00;7.00;;;;;-143.90;100.00;74254.41;4969707;28;101555;-74
2024/02/23 09:30:26;;;;;;;;;6.75;6.00;;;;;-143.90;100.00;74258.53;4976540;28;103333;-75
2024/02/23 09:32:54;;;;;;;;;4.00;4.00;;;;;-143.90;100.00;74260.59;4965027;28;101903;-73
2024/02/23 09:35:21;;;;;;;;;6.75;5.50;;;;;-143.90;100.00;74256.47;4978375;28;101650;-73
2024/02/23 09:37:48;;;;;;;;;4.00;3.75;;;;;-143.90;100.00;74258.53;4978786;28;101885;-74
2024/02/23 09:40:16;;;;;;;;;2.75;2.25;;;;;-143.90;100.00;74254.41;4973619;28;103500;-74
2024/02/23 09:42:48;;;;;;;;;4.00;4.00;;;;;-143.90;100.00;74258.53;4959316;28;101815;-74
2024/02/23 09:45:15;;;;;;;;;3.50;3.00;;;;;-143.90;100.00;74260.59;4975753;28;101444;-73
2024/02/23 09:47:43;;;;;;;;;2.75;2.25;;;;;-143.90;100.00;74260.59;4971223;28;101829;-74
2024/02/23 09:50:11;;;;;;;;;3.50;2.25;;;;;-143.90;100.00;74248.19;4976084;28;103490;-73
2024/02/23 09:52:38;;;;;;;;;1.00;1.00;;;;;-143.90;100.00;74252.34;4965612;28;101782;-73
2024/02/23 09:55:05;;;;;;;;;4.00;3.00;;;;;-143.90;100.00;74246.13;4965351;28;103294;-74
2024/02/23 09:57:34;;;;;;;;;2.75;2.50;;;;;-143.90;100.00;74242.00;4970591;28;104767;-74
2024/02/23 10:00:06;;;;;;;;;4.50;3.00;;;;;-143.90;100.00;74233.72;4979714;28;103566;-73
2024/02/23 10:02:32;;;;;;;;;3.00;2.25;;;;;-143.90;100.00;74246.13;4968017;28;101804;-75
2024/02/23 10:05:02;;;;;;;;;3.00;3.00;;;;;-143.90;100.00;74242.00;4960420;28;101793;-74
2024/02/23 10:07:29;;;;;;;;;3.00;2.00;;;;;-143.90;100.00;74239.94;4974466;28;103930;-74
2024/02/23 10:09:57;;;;;;;;;4.25;3.00;;;;;-143.90;100.00;74237.88;4964003;28;103445;-74
2024/02/23 10:12:24;;;;;;;;;3.75;3.00;;;;;-143.90;100.00;74227.53;4966581;28;102650;-75
2024/02/23 10:14:51;;;;;;;;;3.75;3.00;;;;;-143.90;100.00;74217.19;4956034;28;101644;-74
2024/02/23 10:17:20;;;;;;;;;3.75;3.00;;;;;-143.90;100.00;74215.13;4977679;28;101631;-74
2024/02/23 10:19:47;;;;;;;;;3.00;2.25;;;;;-143.90;100.00;74213.06;4969242;28;103432;-74
2024/02/23 10:22:14;;;;;;;;;2.50;2.00;;;;;-143.90;100.00;74206.88;4953247;28;102374;-75
2024/02/23 10:24:42;;;;;;;;;4.50;3.50;;;;;-143.90;100.00;74213.06;4971931;28;101582;-74
2024/02/23 10:27:09;;;;;;;;;3.75;3.00;;;;;-143.90;100.00;74196.53;4967433;28;102650;-74
2024/02/23 10:29:36;;;;;;;;;4.00;3.00;;;;;-143.90;100.00;74194.47;4968884;28;103459;-75
2024/02/23 10:32:05;;;;;;;;;5.00;3.00;;;;;-143.90;100.00;74188.25;4972986;28;101915;-75
2024/02/23 10:34:36;;;;;;;;;3.25;3.00;;;;;-143.90;100.00;74184.13;4970235;28;101654;-75
2024/02/23 10:37:06;;;;;;;;;3.00;3.00;;;;;-143.90;100.00;74184.13;4966862;28;101676;-76
2024/02/23 10:39:37;;;;;;;;;3.75;3.00;;;;;-143.90;100.00;74173.78;4979394;28;103497;-74
2024/02/23 10:42:05;;;;;;;;;2.00;2.00;;;;;-143.90;100.00;74182.06;4978635;28;102362;-74
2024/02/23 10:44:32;;;;;;;;;2.00;2.00;;;;;-143.90;100.00;74184.13;4974512;28;101770;-75
2024/02/23 10:47:00;;;;;;;;;3.00;2.25;;;;;-143.90;100.00;74188.25;4976127;28;102970;-75
2024/02/23 10:49:27;;;;;;;;;4.00;3.00;;;;;-143.90;100.00;74188.25;4971937;28;103358;-75
2024/02/23 10:51:54;;;;;;;;;1.50;1.25;;;;;-143.90;100.00;74188.25;4964872;28;102090;-74
2024/02/23 10:54:22;;;;;;;;;1.00;1.00;;;;;-143.90;100.00;74200.66;4966420;28;101637;-74
2024/02/23 10:56:51;;;;;;;;;3.00;2.00;;;;;-143.90;100.00;74208.94;4975974;28;101974;-75
2024/02/23 10:59:19;;;;;;;;;1.00;1.00;;;;;-143.90;100.00;74213.06;4973148;28;103376;-75
2024/02/23 11:01:51;;;;;;;;;3.00;2.00;;;;;-143.90;100.00;74223.41;4975696;28;101632;-74